»·PEaware :: DCM205 KSFO-KSBA

DCM205 :: KSFO-KSBA

FLIGHT INFORMATION

Flight Status: Arrived
Operator:
DotCom
More flights by this operator :: More flights under this callsign
Pilot: Chris S. (2433)
Aircraft: BOEING 737-700
(B737)
More flights by this aircraft type
Origin: KSFO San Francisco Intl
United States
Destination: KSBA Santa Barbara Mun
United States
More flights between these airports :: More routes between these airports
Route: +WESLA4 YYUNG GVO
File this flight plan on PilotEdge
Remarks:
Altitude:
(Current/Filed)
31,000ft
Speed:
(Current/Filed)
450kts
Departed: 11-Jun-20 03:08 PM
Arrived: 11-Jun-20 03:58 PM
Distance/Time
Traveled:
228nm/0:49
Distance/Time
To Go:
Arrived

Flight Plot

Page will automatically refresh every two minutes.

Flight plan parsing failed; only flown route is shown


Map Options




Map Legend


Flown Route
Filed Route
Departure Airport
Arrival Airport
Navaid (VOR, NDB)
Fix

Horizontal Profiles

Position Reports

Time Latitude Longitude Heading Altitude Ground
Speed
11-Jun-20 14:49 37.614618 -122.383202 30 20ft 0kts
11-Jun-20 14:50 37.614618 -122.383202 30 20ft 0kts
11-Jun-20 14:51 37.614618 -122.383202 30 20ft 0kts
11-Jun-20 14:52 37.614618 -122.383202 30 20ft 0kts
11-Jun-20 14:53 37.614618 -122.383202 30 20ft 0kts
11-Jun-20 14:54 37.614618 -122.383202 30 20ft 0kts
11-Jun-20 14:55 37.614460 -122.383324 36 20ft 2kts
11-Jun-20 14:56 37.614187 -122.383949 118 20ft 0kts
11-Jun-20 14:57 37.614187 -122.383949 118 20ft 0kts
11-Jun-20 14:58 37.614187 -122.383949 118 20ft 0kts
11-Jun-20 14:59 37.613457 -122.382171 98 20ft 12kts
11-Jun-20 15:00 37.615917 -122.380110 30 20ft 10kts
11-Jun-20 15:01 37.616574 -122.376837 96 20ft 11kts
11-Jun-20 15:02 37.616215 -122.373271 97 20ft 9kts
11-Jun-20 15:03 37.615200 -122.370310 116 20ft 9kts
11-Jun-20 15:04 37.613049 -122.366257 118 20ft 18kts
11-Jun-20 15:05 37.610906 -122.361110 119 20ft 14kts
11-Jun-20 15:06 37.612250 -122.359568 297 20ft 12kts
11-Jun-20 15:07 37.622944 -122.383946 301 502ft 136kts
11-Jun-20 15:08 37.643984 -122.431070 297 1991ft 189kts
11-Jun-20 15:09 37.670387 -122.502585 276 3660ft 252kts
11-Jun-20 15:10 37.622388 -122.549369 158 6452ft 272kts
11-Jun-20 15:11 37.554225 -122.505292 161 9693ft 280kts
11-Jun-20 15:12 37.474229 -122.477611 182 12025ft 325kts
11-Jun-20 15:13 37.383228 -122.494015 190 15366ft 334kts
11-Jun-20 15:14 37.290188 -122.511754 190 18687ft 344kts
11-Jun-20 15:15 37.193866 -122.529651 190 21638ft 355kts
11-Jun-20 15:16 37.094426 -122.547974 191 24112ft 367kts
11-Jun-20 15:17 36.991452 -122.550543 165 26378ft 387kts
11-Jun-20 15:18 36.896279 -122.484672 156 28905ft 390kts
11-Jun-20 15:20 36.803086 -122.415587 157 30698ft 391kts
11-Jun-20 15:21 36.709291 -122.346990 157 31077ft 390kts
11-Jun-20 15:22 36.611077 -122.274862 156 31082ft 427kts
11-Jun-20 15:23 36.505053 -122.197623 156 31085ft 454kts
11-Jun-20 15:24 36.395006 -122.117784 156 31085ft 458kts
11-Jun-20 15:25 36.284508 -122.037898 156 31082ft 460kts
11-Jun-20 15:26 36.173719 -121.957835 156 31078ft 461kts
11-Jun-20 15:27 36.062709 -121.878249 156 31070ft 461kts
11-Jun-20 15:28 35.962756 -121.777072 135 31069ft 478kts
11-Jun-20 15:29 35.881753 -121.646215 133 31060ft 476kts
11-Jun-20 15:30 35.804986 -121.524307 134 31042ft 438kts
11-Jun-20 15:31 35.730065 -121.405128 134 31032ft 439kts
11-Jun-20 15:32 35.655047 -121.286255 134 31018ft 440kts
11-Jun-20 15:33 35.579605 -121.168056 134 31026ft 441kts
11-Jun-20 15:34 35.500502 -121.055115 144 30768ft 418kts
11-Jun-20 15:35 35.414074 -120.966583 147 30760ft 403kts
11-Jun-20 15:36 35.327288 -120.879610 147 30760ft 403kts
11-Jun-20 15:37 35.240766 -120.793137 146 29682ft 397kts
11-Jun-20 15:37 35.170367 -120.722371 146 27829ft 397kts
11-Jun-20 15:39 35.069571 -120.621849 145 25012ft 393kts
11-Jun-20 15:40 34.986242 -120.539098 145 23012ft 379kts
11-Jun-20 15:40 34.918726 -120.472220 145 21334ft 370kts
11-Jun-20 15:42 34.827070 -120.381665 145 19081ft 357kts
11-Jun-20 15:42 34.763579 -120.318913 144 17425ft 349kts
11-Jun-20 15:43 34.689167 -120.245617 144 15449ft 340kts
11-Jun-20 15:44 34.616447 -120.174391 144 13498ft 331kts
11-Jun-20 15:45 34.547131 -120.106638 144 12332ft 298kts
11-Jun-20 15:46 34.504370 -120.024969 115 10931ft 288kts
11-Jun-20 15:47 34.459161 -119.947567 132 9271ft 278kts
11-Jun-20 15:48 34.409013 -119.878713 132 7545ft 260kts
11-Jun-20 15:49 34.363997 -119.816655 132 5363ft 232kts
11-Jun-20 15:50 34.322083 -119.758462 131 3201ft 220kts
11-Jun-20 15:51 34.330640 -119.699648 53 2152ft 187kts
11-Jun-20 15:52 34.369071 -119.665819 353 2018ft 184kts
11-Jun-20 15:53 34.403803 -119.707646 298 2157ft 174kts
11-Jun-20 15:54 34.420857 -119.757912 284 1692ft 157kts
11-Jun-20 15:55 34.428311 -119.807528 272 546ft 145kts
11-Jun-20 15:56 34.427598 -119.849374 268 18ft 51kts
11-Jun-20 15:57 34.426465 -119.849433 87 18ft 18kts
11-Jun-20 15:58 34.426601 -119.843595 88 18ft 18kts
11-Jun-20 15:59 34.426320 -119.837973 142 18ft 8kts
11-Jun-20 16:00 34.425142 -119.837304 109 18ft 0kts
11-Jun-20 16:01 34.425142 -119.837304 109 18ft 0kts
11-Jun-20 16:02 34.425142 -119.837304 109 18ft 0kts
11-Jun-20 16:03 34.425142 -119.837304 109 18ft 0kts
11-Jun-20 16:04 34.425142 -119.837304 109 18ft 0kts
11-Jun-20 16:05 34.425142 -119.837304 109 18ft 0kts
11-Jun-20 16:06 34.425142 -119.837304 109 18ft 0kts
11-Jun-20 16:07 34.425142 -119.837304 109 18ft 0kts
11-Jun-20 16:08 34.425142 -119.837304 109 18ft 0kts
11-Jun-20 16:09 34.425142 -119.837304 109 18ft 0kts
11-Jun-20 16:10 34.425142 -119.837304 109 18ft 0kts
11-Jun-20 16:11 34.425142 -119.837304 109 18ft 0kts

Navigation Log

Ident Type
Flight plan parsing failed, navigation log unavailable